This is the latest recevied weather packets stored in our database for station/object KC0FGX-1. If no packets are shown the sender has not sent any weather packets the latest 10 day(s).
| Time | Temp. | Humidity | Pressure | Rain* | Wind** | Luminosity | Snow |
|---|---|---|---|---|---|---|---|
| 1777883187 | 11.11° C | 90% | 1004.3 hPa | 0 mm | - | - | - |
| 1777882188 | 11.11° C | 90% | 1004.4 hPa | 0 mm | - | - | - |
| 1777881187 | 11.11° C | 90% | 1004.3 hPa | 0 mm | - | - | - |
| 1777880187 | 11.67° C | 90% | 1004.7 hPa | 0 mm | - | - | - |
| 1777879187 | 11.67° C | 89% | 1005.5 hPa | 0 mm | - | - | - |
| 1777877187 | 11.67° C | 89% | 1005.7 hPa | 0.51 mm | - | - | - |
| 1777876188 | 11.67° C | 87% | 1005.6 hPa | 0.51 mm | - | - | - |
| 1777875187 | 12.22° C | 84% | 1005.9 hPa | 0.51 mm | - | - | - |
| 1777874187 | 13.33° C | 75% | 1006.2 hPa | 0.25 mm | - | - | - |
| 1777873189 | 12.78° C | 76% | 1006.3 hPa | 0 mm | - | - | - |
| 1777872187 | 13.33° C | 74% | 1006.3 hPa | 0 mm | - | - | - |
| 1777871187 | 13.33° C | 74% | 1006.4 hPa | 0 mm | - | - | - |
| 1777870187 | 13.33° C | 75% | 1006.3 hPa | 0 mm | - | - | - |
| 1777869187 | 12.78° C | 81% | 1006.3 hPa | 0 mm | - | - | - |
| 1777868187 | 12.22° C | 82% | 1006.3 hPa | 0 mm | - | - | - |
| 1777867187 | 12.22° C | 82% | 1006.3 hPa | 0 mm | - | - | - |
| 1777847188 | 22.22° C | 44% | 1007.2 hPa | 0 mm | - | - | - |
| 1777845187 | 22.22° C | 44% | 1007.5 hPa | 0 mm | - | - | - |
| 1777844187 | 22.22° C | 44% | 1007.6 hPa | 0 mm | - | - | - |
| 1777839186 | 21.11° C | 45% | 1008.3 hPa | 0 mm | - | - | - |
| 1777834186 | 20.56° C | 48% | 1008.6 hPa | 0 mm | - | - | - |
| 1777832186 | 19.44° C | 47% | 1009 hPa | 0 mm | - | - | - |
| 1777829186 | 18.89° C | 51% | 1009.7 hPa | 0 mm | - | - | - |
| 1777828186 | 18.33° C | 50% | 1010 hPa | 0 mm | - | - | - |
| 1777827186 | 17.78° C | 50% | 1010.1 hPa | 0 mm | - | - | - |
* Rain latest hour (hover to see other rain measurements)
** Current wind speed in m/s (hover to see current wind gust speed)